createdAt,value
2022-12-20T00:01:34.805Z,22.80
2022-12-20T00:04:05.364Z,24.13
2022-12-20T00:06:34.949Z,22.37
2022-12-20T00:09:04.292Z,21.93
2022-12-20T00:11:31.381Z,24.20
2022-12-20T00:13:59.030Z,23.53
2022-12-20T00:16:29.960Z,22.33
2022-12-20T00:19:00.199Z,23.07
2022-12-20T00:21:28.349Z,22.33
2022-12-20T00:23:56.328Z,24.07
2022-12-20T00:26:26.255Z,21.60
2022-12-20T00:28:54.068Z,23.10
2022-12-20T00:31:23.672Z,22.40
2022-12-20T00:33:52.417Z,23.90
2022-12-20T00:36:20.397Z,24.90
2022-12-20T00:38:49.242Z,22.87
2022-12-20T00:41:19.256Z,22.33
2022-12-20T00:43:46.695Z,23.43
2022-12-20T00:46:15.527Z,24.73
2022-12-20T00:48:42.861Z,24.13
2022-12-20T00:51:15.708Z,25.30
2022-12-20T00:53:43.466Z,23.67
2022-12-20T00:56:11.049Z,22.83
2022-12-20T00:58:40.342Z,22.87
2022-12-20T01:01:23.113Z,22.67
2022-12-20T01:03:50.840Z,23.83
2022-12-20T01:06:19.551Z,24.53
2022-12-20T01:08:46.916Z,24.13
2022-12-20T01:11:18.304Z,22.77
2022-12-20T01:13:47.943Z,23.13
2022-12-20T01:16:33.475Z,22.83
2022-12-20T01:19:01.211Z,22.37
2022-12-20T01:21:29.241Z,21.60
2022-12-20T01:23:56.555Z,21.57
2022-12-20T01:26:26.638Z,22.77
2022-12-20T01:28:56.558Z,22.30
2022-12-20T01:31:24.547Z,24.70
2022-12-20T01:33:52.780Z,23.00
2022-12-20T01:36:25.287Z,22.37
2022-12-20T01:38:59.448Z,22.90
2022-12-20T01:41:28.368Z,23.43
2022-12-20T01:43:58.527Z,23.07
2022-12-20T01:46:27.935Z,22.57
2022-12-20T01:49:18.852Z,23.63
2022-12-20T01:51:49.299Z,21.43
2022-12-20T01:54:24.604Z,23.80
2022-12-20T01:56:57.107Z,22.87
2022-12-20T01:59:25.794Z,22.47
2022-12-20T02:01:53.038Z,21.60
2022-12-20T02:04:20.089Z,23.50
2022-12-20T02:06:47.021Z,21.73
2022-12-20T02:09:14.412Z,23.67
2022-12-20T02:12:16.491Z,23.77
2022-12-20T02:15:15.649Z,23.87
2022-12-20T02:18:01.771Z,23.20
2022-12-20T02:21:08.695Z,23.23
2022-12-20T02:24:26.916Z,23.57
2022-12-20T02:27:26.660Z,23.10
2022-12-20T02:30:06.923Z,22.73
2022-12-20T02:32:52.955Z,23.10
2022-12-20T02:35:25.296Z,22.13
2022-12-20T02:37:58.742Z,22.83
2022-12-20T02:40:29.805Z,21.30
2022-12-20T02:43:01.636Z,22.53
2022-12-20T02:45:34.762Z,23.23
2022-12-20T02:48:08.110Z,20.93
2022-12-20T02:50:44.691Z,20.70
2022-12-20T02:53:13.190Z,20.90
2022-12-20T02:56:04.221Z,22.23
2022-12-20T02:58:39.986Z,20.47
2022-12-20T03:01:30.649Z,21.87
2022-12-20T03:03:58.933Z,19.83
2022-12-20T03:06:26.185Z,21.83
2022-12-20T03:08:53.268Z,21.60
2022-12-20T03:11:20.671Z,19.40
2022-12-20T03:13:47.826Z,20.83
2022-12-20T03:16:15.748Z,21.17
2022-12-20T03:18:45.468Z,21.57
2022-12-20T03:21:12.743Z,21.60
2022-12-20T03:23:39.735Z,21.00
2022-12-20T03:26:06.771Z,20.00
2022-12-20T03:28:33.740Z,19.90
2022-12-20T03:31:00.821Z,21.13
2022-12-20T03:33:27.810Z,20.97
2022-12-20T03:35:54.770Z,21.40
2022-12-20T03:38:21.789Z,22.77
2022-12-20T03:40:48.778Z,23.33
2022-12-20T03:43:16.118Z,24.13
2022-12-20T03:45:43.224Z,21.17
2022-12-20T03:48:10.158Z,21.80
2022-12-20T03:50:37.392Z,20.83
2022-12-20T03:53:04.698Z,21.60
2022-12-20T03:55:31.677Z,21.53
2022-12-20T03:57:58.682Z,20.60
2022-12-20T04:00:26.292Z,21.73
2022-12-20T04:02:53.360Z,19.37
2022-12-20T04:05:21.398Z,20.20
2022-12-20T04:07:48.513Z,21.50
2022-12-20T04:10:15.612Z,19.50
2022-12-20T04:12:42.566Z,20.43
2022-12-20T04:15:10.017Z,22.10
2022-12-20T04:17:36.965Z,21.33
2022-12-20T04:20:19.239Z,22.57
2022-12-20T04:22:48.351Z,20.83
2022-12-20T04:25:17.360Z,21.33
2022-12-20T04:27:44.630Z,22.93
2022-12-20T04:30:13.040Z,24.00
2022-12-20T04:32:40.032Z,22.90
2022-12-20T04:35:07.542Z,22.87
2022-12-20T04:37:34.479Z,21.10
2022-12-20T04:40:01.527Z,21.83
2022-12-20T04:42:28.523Z,21.00
2022-12-20T04:44:55.501Z,20.80
2022-12-20T04:47:22.511Z,22.47
2022-12-20T04:49:49.452Z,22.43
2022-12-20T04:52:35.907Z,21.33
2022-12-20T04:55:03.519Z,21.20
2022-12-20T04:57:30.498Z,22.97
2022-12-20T04:59:57.512Z,20.83
2022-12-20T05:02:24.639Z,20.57
2022-12-20T05:04:51.750Z,22.40
2022-12-20T05:07:18.751Z,21.33
2022-12-20T05:09:45.823Z,21.07
2022-12-20T05:12:12.804Z,21.30
2022-12-20T05:14:39.843Z,20.83
2022-12-20T05:17:06.839Z,19.67
2022-12-20T05:19:33.808Z,20.20
2022-12-20T05:22:19.405Z,22.57
2022-12-20T05:25:05.152Z,21.50
2022-12-20T05:27:32.142Z,21.67
2022-12-20T05:29:59.191Z,20.00
2022-12-20T05:32:26.176Z,20.30
2022-12-20T05:34:53.177Z,20.30
2022-12-20T05:37:20.213Z,20.37
2022-12-20T05:39:47.381Z,20.90
2022-12-20T05:42:14.526Z,21.13
2022-12-20T05:44:41.563Z,21.40
2022-12-20T05:47:09.181Z,21.47
2022-12-20T05:49:36.218Z,21.83
2022-12-20T05:52:03.674Z,21.33
2022-12-20T05:54:30.704Z,21.57
2022-12-20T05:56:57.724Z,20.90
2022-12-20T05:59:25.053Z,22.07
2022-12-20T06:01:52.251Z,19.23
2022-12-20T06:04:19.252Z,21.37
2022-12-20T06:06:46.630Z,19.60
2022-12-20T06:09:13.605Z,21.97
2022-12-20T06:11:40.919Z,20.67
2022-12-20T06:14:07.889Z,20.80
2022-12-20T06:16:36.374Z,20.17
2022-12-20T06:19:03.443Z,20.17
2022-12-20T06:21:30.464Z,20.27
2022-12-20T06:23:57.427Z,20.00
2022-12-20T06:26:24.619Z,20.43
2022-12-20T06:28:57.184Z,20.73
2022-12-20T06:31:24.402Z,21.33
2022-12-20T06:33:51.405Z,19.53
2022-12-20T06:36:18.661Z,19.67
2022-12-20T06:38:45.638Z,21.13
2022-12-20T06:41:13.011Z,20.90
2022-12-20T06:43:40.370Z,19.70
2022-12-20T06:46:07.452Z,19.97
2022-12-20T06:48:34.476Z,19.33
2022-12-20T06:51:01.479Z,20.87
2022-12-20T06:53:29.559Z,20.10
2022-12-20T06:55:56.525Z,19.80
2022-12-20T06:58:23.629Z,18.90
2022-12-20T07:00:51.899Z,19.53
2022-12-20T07:03:19.013Z,20.07
2022-12-20T07:05:51.327Z,18.87
2022-12-20T07:08:19.268Z,20.97
2022-12-20T07:10:46.841Z,21.33
2022-12-20T07:13:14.242Z,21.27
2022-12-20T07:15:42.037Z,19.37
2022-12-20T07:18:09.003Z,18.80
2022-12-20T07:20:36.657Z,19.87
2022-12-20T07:23:03.938Z,19.33
2022-12-20T07:25:30.911Z,20.33
2022-12-20T07:27:58.524Z,20.30
2022-12-20T07:30:26.207Z,20.10
2022-12-20T07:32:53.227Z,19.43
2022-12-20T07:35:20.314Z,20.10
2022-12-20T07:37:47.304Z,20.03
2022-12-20T07:40:16.298Z,18.97
2022-12-20T07:42:48.759Z,18.97
2022-12-20T07:45:16.282Z,18.73
2022-12-20T07:47:44.079Z,19.57
2022-12-20T07:50:11.947Z,17.63
2022-12-20T07:52:42.072Z,17.87
2022-12-20T07:55:10.475Z,19.27
2022-12-20T07:57:49.475Z,18.63
2022-12-20T08:00:18.909Z,17.47
2022-12-20T08:03:05.273Z,18.87
2022-12-20T08:05:34.962Z,18.10
2022-12-20T08:08:03.854Z,17.13
2022-12-20T08:10:31.682Z,19.30
2022-12-20T08:12:59.510Z,17.63
2022-12-20T08:15:28.443Z,18.10
2022-12-20T08:17:55.473Z,17.40
2022-12-20T08:20:22.494Z,17.57
2022-12-20T08:22:49.461Z,17.13
2022-12-20T08:25:16.696Z,16.47
2022-12-20T08:27:43.907Z,16.53
2022-12-20T08:30:11.533Z,17.13
2022-12-20T08:32:38.889Z,16.83
2022-12-20T08:35:06.536Z,16.77
2022-12-20T08:37:33.801Z,16.80
2022-12-20T08:40:01.006Z,17.63
2022-12-20T08:42:28.651Z,15.97
2022-12-20T08:44:57.340Z,15.77
2022-12-20T08:47:24.335Z,16.43
2022-12-20T08:49:51.551Z,15.97
2022-12-20T08:52:18.594Z,17.57
2022-12-20T08:54:46.192Z,17.47
2022-12-20T08:57:13.845Z,15.13
2022-12-20T08:59:40.967Z,16.17
2022-12-20T09:02:08.272Z,15.73
2022-12-20T09:04:35.706Z,14.03
2022-12-20T09:07:02.899Z,15.63
2022-12-20T09:09:32.120Z,15.67
2022-12-20T09:11:59.116Z,17.37
2022-12-20T09:14:26.348Z,16.30
2022-12-20T09:16:53.338Z,15.07
2022-12-20T09:19:20.376Z,14.73
2022-12-20T09:21:47.416Z,15.60
2022-12-20T09:24:14.473Z,14.87
2022-12-20T09:26:41.453Z,14.10
2022-12-20T09:29:08.407Z,15.40
2022-12-20T09:31:35.480Z,15.53
2022-12-20T09:34:02.591Z,14.57
2022-12-20T09:36:30.408Z,15.03
2022-12-20T09:38:57.608Z,16.67
2022-12-20T09:41:37.399Z,15.03
2022-12-20T09:44:27.298Z,14.80
2022-12-20T09:47:12.069Z,16.00
2022-12-20T09:49:43.134Z,15.13
2022-12-20T09:52:23.936Z,15.00
2022-12-20T09:55:24.775Z,14.30
2022-12-20T09:58:10.427Z,14.57
2022-12-20T10:00:53.827Z,15.17
2022-12-20T10:03:29.097Z,15.47
2022-12-20T10:06:00.881Z,15.87
2022-12-20T10:08:50.843Z,15.63
2022-12-20T10:11:40.908Z,15.50
2022-12-20T10:14:43.659Z,15.17
2022-12-20T10:17:17.257Z,15.17
2022-12-20T10:20:09.966Z,17.02
2022-12-20T10:22:43.586Z,16.97
2022-12-20T10:25:23.687Z,14.80
2022-12-20T10:27:57.079Z,15.90
2022-12-20T10:30:26.540Z,14.73
2022-12-20T10:32:57.771Z,14.83
2022-12-20T10:35:37.846Z,14.23
2022-12-20T10:38:12.648Z,14.20
2022-12-20T10:43:49.844Z,13.50
2022-12-20T10:46:17.141Z,15.03
2022-12-20T10:48:46.723Z,13.57
2022-12-20T10:51:20.192Z,14.53
2022-12-20T10:53:53.145Z,14.60
2022-12-20T10:56:22.938Z,13.97
2022-12-20T10:59:21.361Z,13.60
2022-12-20T11:01:49.924Z,14.90
2022-12-20T11:04:38.747Z,15.73
2022-12-20T11:07:26.007Z,14.03
2022-12-20T11:09:56.338Z,13.83
2022-12-20T11:12:23.623Z,15.50
2022-12-20T11:14:50.598Z,14.17
2022-12-20T11:17:32.598Z,15.33
2022-12-20T11:20:27.373Z,16.73
2022-12-20T11:23:06.879Z,16.27
2022-12-20T11:25:50.889Z,15.57
2022-12-20T11:28:44.901Z,15.03
2022-12-20T11:31:25.602Z,14.10
2022-12-20T11:34:18.464Z,14.83
2022-12-20T11:36:57.489Z,14.53
2022-12-20T11:39:42.972Z,13.80
2022-12-20T11:42:40.636Z,13.77
2022-12-20T11:45:40.811Z,13.13
2022-12-20T11:48:35.505Z,14.90
2022-12-20T11:51:09.610Z,14.23
2022-12-20T11:53:45.643Z,13.77
2022-12-20T11:56:23.126Z,12.93
2022-12-20T11:58:57.608Z,13.73
2022-12-20T12:01:40.955Z,13.70
2022-12-20T12:04:22.784Z,14.13
2022-12-20T12:06:59.494Z,13.77
2022-12-20T12:09:41.460Z,13.90
2022-12-20T12:12:40.628Z,14.30
2022-12-20T12:15:22.714Z,14.97
2022-12-20T12:18:09.335Z,14.90
2022-12-20T12:20:45.395Z,13.77
2022-12-20T12:23:34.721Z,13.13
2022-12-20T12:26:14.887Z,15.17
2022-12-20T12:28:41.999Z,14.20
2022-12-20T12:31:16.832Z,15.00
2022-12-20T12:34:09.340Z,15.20
2022-12-20T12:37:03.566Z,13.50
2022-12-20T12:39:45.495Z,13.87
2022-12-20T12:42:37.580Z,14.87
2022-12-20T12:45:47.792Z,13.63
2022-12-20T12:48:39.399Z,14.33
2022-12-20T12:51:07.315Z,14.53
2022-12-20T12:53:50.700Z,14.73
2022-12-20T12:56:43.390Z,14.30
2022-12-20T12:59:39.897Z,13.80
2022-12-20T13:02:16.742Z,13.23
2022-12-20T13:04:57.681Z,13.43
2022-12-20T13:07:34.008Z,13.57
2022-12-20T13:10:25.709Z,14.20
2022-12-20T13:12:52.830Z,15.67
2022-12-20T13:15:19.856Z,13.60
2022-12-20T13:17:55.697Z,13.37
2022-12-20T13:20:28.566Z,14.77
2022-12-20T13:23:11.949Z,14.63
2022-12-20T13:25:51.980Z,14.57
2022-12-20T13:28:22.811Z,14.80
2022-12-20T13:31:02.309Z,15.53
2022-12-20T13:33:47.881Z,13.77
2022-12-20T13:36:18.340Z,14.17
2022-12-20T13:39:26.692Z,14.47
2022-12-20T13:42:17.259Z,14.43
2022-12-20T13:44:47.033Z,13.57
2022-12-20T13:47:32.743Z,14.23
2022-12-20T13:50:23.259Z,14.93
2022-12-20T13:52:51.338Z,14.23
2022-12-20T13:55:33.578Z,14.17
2022-12-20T13:58:16.525Z,15.10
2022-12-20T14:00:45.259Z,14.87
2022-12-20T14:03:28.771Z,15.23
2022-12-20T14:06:04.532Z,16.23
2022-12-20T14:08:34.588Z,14.63
2022-12-20T14:11:22.867Z,14.63
2022-12-20T14:13:57.121Z,14.57
2022-12-20T14:16:26.848Z,13.87
2022-12-20T14:19:05.993Z,14.50
2022-12-20T14:21:39.807Z,13.67
2022-12-20T14:24:27.417Z,14.77
2022-12-20T14:26:54.726Z,13.47
2022-12-20T14:29:29.958Z,14.23
2022-12-20T14:31:57.380Z,13.43
2022-12-20T14:34:34.046Z,13.50
2022-12-20T14:37:36.284Z,15.20
2022-12-20T14:40:23.903Z,13.83
2022-12-20T14:42:51.365Z,14.50
2022-12-20T14:45:23.801Z,15.37
2022-12-20T14:48:15.535Z,14.77
2022-12-20T14:50:52.566Z,14.07
2022-12-20T14:53:27.881Z,14.17
2022-12-20T14:55:55.240Z,14.10
2022-12-20T14:58:29.877Z,14.13
2022-12-20T15:01:16.386Z,13.93
2022-12-20T15:03:59.921Z,13.63
2022-12-20T15:06:44.467Z,14.77
2022-12-20T15:09:11.493Z,14.43
2022-12-20T15:11:39.156Z,13.47
2022-12-20T15:14:36.577Z,14.73
2022-12-20T15:17:09.898Z,13.37
2022-12-20T15:19:42.017Z,14.57
2022-12-20T15:22:18.827Z,15.30
2022-12-20T15:24:45.724Z,16.03
2022-12-20T15:27:16.094Z,13.87
2022-12-20T15:29:43.543Z,14.77
2022-12-20T15:32:24.806Z,14.63
2022-12-20T15:34:51.859Z,14.43
2022-12-20T15:37:19.257Z,14.00
2022-12-20T15:39:46.553Z,14.53
2022-12-20T15:42:20.056Z,14.93
2022-12-20T15:44:47.696Z,14.07
2022-12-20T15:47:16.002Z,13.40
2022-12-20T15:49:49.542Z,14.30
2022-12-20T15:52:21.435Z,16.93
2022-12-20T15:54:48.623Z,14.43
2022-12-20T15:57:16.041Z,14.60
2022-12-20T16:00:01.135Z,15.47
2022-12-20T16:02:31.209Z,16.83
2022-12-20T16:04:59.237Z,15.63
2022-12-20T16:07:26.374Z,13.77
2022-12-20T16:09:54.307Z,13.80
2022-12-20T16:12:35.043Z,15.40
2022-12-20T16:15:02.046Z,14.23
2022-12-20T16:17:29.167Z,13.20
2022-12-20T16:19:56.259Z,15.10
2022-12-20T16:22:25.072Z,14.90
2022-12-20T16:24:52.305Z,14.47
2022-12-20T16:27:20.567Z,15.97
2022-12-20T16:29:47.810Z,14.53
2022-12-20T16:32:16.856Z,15.20
2022-12-20T16:34:44.395Z,14.50
2022-12-20T16:37:12.135Z,14.73
2022-12-20T16:39:39.136Z,15.67
2022-12-20T16:42:18.520Z,13.80
2022-12-20T16:44:46.245Z,14.73
2022-12-20T16:47:14.457Z,14.27
2022-12-20T16:49:51.860Z,15.03
2022-12-20T16:52:22.146Z,14.10
2022-12-20T16:54:50.162Z,20.27
2022-12-20T16:57:17.251Z,15.67
2022-12-20T16:59:44.728Z,15.90
2022-12-20T17:02:32.906Z,15.23
2022-12-20T17:05:00.571Z,16.00
2022-12-20T17:07:27.549Z,15.10
2022-12-20T17:09:54.804Z,15.17
2022-12-20T17:12:23.299Z,16.53
2022-12-20T17:14:50.307Z,16.13
2022-12-20T17:17:17.683Z,15.67
2022-12-20T17:19:45.029Z,16.17
2022-12-20T17:22:25.572Z,16.17
2022-12-20T17:24:52.718Z,16.07
2022-12-20T17:27:19.684Z,15.60
2022-12-20T17:29:46.718Z,16.30
2022-12-20T17:32:24.557Z,17.00
2022-12-20T17:34:52.973Z,17.77
2022-12-20T17:37:21.195Z,16.00
2022-12-20T17:39:48.587Z,15.87
2022-12-20T17:42:16.725Z,16.83
2022-12-20T17:44:43.851Z,16.60
2022-12-20T17:47:11.895Z,16.07
2022-12-20T17:49:39.429Z,15.60
2022-12-20T17:52:06.425Z,16.10
2022-12-20T17:54:39.709Z,15.23
2022-12-20T17:57:14.319Z,15.13
2022-12-20T17:59:41.451Z,15.53
2022-12-20T18:02:28.690Z,15.77
2022-12-20T18:04:55.888Z,14.63
2022-12-20T18:07:22.798Z,15.13
2022-12-20T18:09:50.124Z,14.97
2022-12-20T18:12:17.959Z,15.20
2022-12-20T18:14:45.329Z,15.07
2022-12-20T18:17:12.337Z,13.60
2022-12-20T18:19:40.687Z,14.60
2022-12-20T18:22:07.671Z,14.27
2022-12-20T18:24:34.803Z,13.77
2022-12-20T18:27:01.736Z,16.40
2022-12-20T18:29:29.390Z,14.60
2022-12-20T18:31:56.338Z,16.23
2022-12-20T18:34:23.508Z,14.93
2022-12-20T18:36:50.400Z,13.97
2022-12-20T18:39:17.465Z,13.83
2022-12-20T18:41:44.725Z,14.20
2022-12-20T18:44:12.088Z,14.00
2022-12-20T18:46:39.526Z,13.80
2022-12-20T18:49:06.657Z,14.37
2022-12-20T18:51:38.124Z,14.57
2022-12-20T18:54:07.373Z,17.02
2022-12-20T18:56:37.781Z,14.67
2022-12-20T18:59:11.608Z,15.13
2022-12-20T19:01:41.066Z,13.70
2022-12-20T19:04:08.613Z,14.47
2022-12-20T19:06:37.092Z,14.30
2022-12-20T19:09:06.793Z,13.97
2022-12-20T19:11:34.047Z,14.77
2022-12-20T19:14:01.380Z,15.40
2022-12-20T19:16:32.116Z,15.40
2022-12-20T19:19:01.006Z,15.63
2022-12-20T19:21:31.360Z,12.83
2022-12-20T19:24:01.779Z,14.37
2022-12-20T19:26:29.971Z,14.13
2022-12-20T19:28:58.515Z,13.77
2022-12-20T19:31:28.781Z,13.77
2022-12-20T19:33:59.356Z,14.97
2022-12-20T19:36:32.624Z,13.87
2022-12-20T19:39:01.727Z,15.60
2022-12-20T19:41:32.297Z,14.40
2022-12-20T19:43:59.969Z,15.07
2022-12-20T19:46:29.596Z,13.03
2022-12-20T19:48:58.441Z,14.30
2022-12-20T19:51:26.928Z,13.00
2022-12-20T19:53:54.723Z,14.27
2022-12-20T19:56:25.307Z,15.23
2022-12-20T19:58:53.185Z,14.30
2022-12-20T20:01:23.090Z,14.87
2022-12-20T20:03:50.306Z,14.83
2022-12-20T20:06:17.472Z,15.20
2022-12-20T20:08:45.820Z,14.90
2022-12-20T20:11:13.087Z,14.80
2022-12-20T20:13:40.383Z,12.97
2022-12-20T20:16:08.328Z,13.93
2022-12-20T20:18:37.357Z,13.93
2022-12-20T20:21:14.266Z,14.30
2022-12-20T20:23:41.606Z,13.90
2022-12-20T20:26:13.244Z,14.47
2022-12-20T20:28:44.897Z,13.53
2022-12-20T20:31:14.744Z,14.67
2022-12-20T20:33:42.742Z,14.53
2022-12-20T20:36:14.068Z,14.97
2022-12-20T20:38:41.288Z,14.73
2022-12-20T20:41:09.084Z,13.83
2022-12-20T20:43:39.273Z,13.97
2022-12-20T20:46:08.626Z,12.50
2022-12-20T20:48:36.066Z,13.10
2022-12-20T20:51:03.445Z,13.63
2022-12-20T20:53:34.011Z,13.53
2022-12-20T20:56:02.748Z,13.33
2022-12-20T20:58:29.797Z,14.27
2022-12-20T21:00:59.122Z,14.27
2022-12-20T21:03:27.529Z,14.10
2022-12-20T21:08:41.808Z,14.23
2022-12-20T21:11:09.530Z,13.80
2022-12-20T21:13:37.070Z,13.43
2022-12-20T21:16:12.702Z,13.90
2022-12-20T21:18:39.873Z,13.87
2022-12-20T21:21:11.739Z,14.30
2022-12-20T21:23:40.093Z,13.77
2022-12-20T21:26:07.874Z,14.07
2022-12-20T21:28:35.774Z,13.93
2022-12-20T21:31:05.224Z,13.43
2022-12-20T21:33:32.514Z,13.33
2022-12-20T21:36:14.410Z,14.13
2022-12-20T21:38:41.807Z,15.17
2022-12-20T21:41:12.461Z,14.07
2022-12-20T21:43:39.889Z,15.33
2022-12-20T21:46:11.368Z,14.93
2022-12-20T21:48:44.263Z,15.70
2022-12-20T21:51:14.424Z,15.73
2022-12-20T21:53:55.606Z,15.33
2022-12-20T21:56:24.112Z,16.47
2022-12-20T21:58:51.876Z,16.13
2022-12-20T22:01:21.566Z,15.33
2022-12-20T22:03:58.174Z,15.20
2022-12-20T22:06:25.815Z,15.77
2022-12-20T22:08:52.790Z,15.30
2022-12-20T22:11:19.798Z,14.10
2022-12-20T22:13:47.425Z,20.23
2022-12-20T22:16:17.827Z,22.10
2022-12-20T22:18:49.644Z,20.30
2022-12-20T22:21:17.807Z,20.83
2022-12-20T22:23:45.037Z,16.50
2022-12-20T22:26:14.801Z,13.57
2022-12-20T22:28:47.576Z,13.07
2022-12-20T22:31:15.162Z,14.03
2022-12-20T22:33:42.439Z,14.33
2022-12-20T22:36:11.395Z,13.27
2022-12-20T22:38:38.692Z,12.93
2022-12-20T22:41:17.419Z,12.33
2022-12-20T22:43:45.751Z,15.07
2022-12-20T22:46:14.311Z,15.73
2022-12-20T22:48:41.983Z,15.97
2022-12-20T22:51:16.602Z,15.57
2022-12-20T22:53:43.739Z,13.83
2022-12-20T22:56:11.647Z,14.67
2022-12-20T22:58:39.332Z,12.63
2022-12-20T23:01:08.839Z,13.83
2022-12-20T23:03:37.236Z,14.27
2022-12-20T23:06:06.104Z,14.97
2022-12-20T23:08:35.593Z,15.87
2022-12-20T23:11:22.194Z,16.10
2022-12-20T23:14:07.908Z,17.10
2022-12-20T23:16:36.846Z,16.33
2022-12-20T23:19:03.810Z,14.37
2022-12-20T23:21:49.571Z,14.30
2022-12-20T23:24:16.634Z,14.43
2022-12-20T23:26:44.018Z,14.07
2022-12-20T23:29:11.780Z,14.27
2022-12-20T23:31:38.794Z,13.77
2022-12-20T23:34:06.140Z,14.83
2022-12-20T23:36:33.539Z,16.07
2022-12-20T23:39:00.933Z,16.73
2022-12-20T23:41:28.417Z,17.13
2022-12-20T23:43:55.991Z,16.17
2022-12-20T23:46:23.304Z,15.47
2022-12-20T23:48:53.340Z,14.83
2022-12-20T23:51:20.996Z,13.80
2022-12-20T23:53:48.650Z,13.70
2022-12-20T23:56:18.264Z,14.27
2022-12-20T23:58:46.282Z,14.93
